sensor_id;sensor_type;location;lat;lon;timestamp;P1;durP1;ratioP1;P2;durP2;ratioP2
55330;SDS011;58851;42.984;20.336;2022-08-19T00:01:50;13.52;;;7.75;;
55330;SDS011;58851;42.984;20.336;2022-08-19T00:04:17;17.52;;;8.52;;
55330;SDS011;58851;42.984;20.336;2022-08-19T00:06:46;23.27;;;9.02;;
55330;SDS011;58851;42.984;20.336;2022-08-19T00:09:13;16.95;;;8.77;;
55330;SDS011;58851;42.984;20.336;2022-08-19T00:11:42;15.00;;;8.20;;
55330;SDS011;58851;42.984;20.336;2022-08-19T00:14:09;16.15;;;9.60;;
55330;SDS011;58851;42.984;20.336;2022-08-19T00:16:37;18.27;;;10.38;;
55330;SDS011;58851;42.984;20.336;2022-08-19T00:19:04;18.02;;;10.18;;
55330;SDS011;58851;42.984;20.336;2022-08-19T00:21:30;22.38;;;9.70;;
55330;SDS011;58851;42.984;20.336;2022-08-19T00:23:56;16.70;;;9.30;;
55330;SDS011;58851;42.984;20.336;2022-08-19T00:26:26;15.82;;;8.57;;
55330;SDS011;58851;42.984;20.336;2022-08-19T00:28:53;24.17;;;9.48;;
55330;SDS011;58851;42.984;20.336;2022-08-19T00:31:19;16.90;;;9.05;;
55330;SDS011;58851;42.984;20.336;2022-08-19T00:33:45;17.08;;;9.80;;
55330;SDS011;58851;42.984;20.336;2022-08-19T00:36:12;15.52;;;9.50;;
55330;SDS011;58851;42.984;20.336;2022-08-19T00:38:39;22.02;;;9.80;;
55330;SDS011;58851;42.984;20.336;2022-08-19T00:41:09;12.90;;;7.25;;
55330;SDS011;58851;42.984;20.336;2022-08-19T00:43:37;14.43;;;7.50;;
55330;SDS011;58851;42.984;20.336;2022-08-19T00:46:04;19.38;;;10.00;;
55330;SDS011;58851;42.984;20.336;2022-08-19T00:48:30;11.38;;;8.18;;
55330;SDS011;58851;42.984;20.336;2022-08-19T00:50:58;21.40;;;8.82;;
55330;SDS011;58851;42.984;20.336;2022-08-19T00:53:26;23.02;;;8.85;;
55330;SDS011;58851;42.984;20.336;2022-08-19T00:55:54;21.20;;;8.95;;
55330;SDS011;58851;42.984;20.336;2022-08-19T00:58:24;14.85;;;8.73;;
55330;SDS011;58851;42.984;20.336;2022-08-19T01:00:53;18.80;;;9.00;;
55330;SDS011;58851;42.984;20.336;2022-08-19T01:03:20;16.42;;;8.48;;
55330;SDS011;58851;42.984;20.336;2022-08-19T01:05:49;14.20;;;8.68;;
55330;SDS011;58851;42.984;20.336;2022-08-19T01:08:17;14.55;;;7.28;;
55330;SDS011;58851;42.984;20.336;2022-08-19T01:10:47;19.15;;;9.07;;
55330;SDS011;58851;42.984;20.336;2022-08-19T01:13:22;14.18;;;9.98;;
55330;SDS011;58851;42.984;20.336;2022-08-19T01:15:59;13.90;;;8.98;;
55330;SDS011;58851;42.984;20.336;2022-08-19T01:18:27;15.13;;;8.80;;
55330;SDS011;58851;42.984;20.336;2022-08-19T01:20:56;13.63;;;9.15;;
55330;SDS011;58851;42.984;20.336;2022-08-19T01:23:33;16.88;;;8.85;;
55330;SDS011;58851;42.984;20.336;2022-08-19T01:26:26;18.92;;;9.88;;
55330;SDS011;58851;42.984;20.336;2022-08-19T01:28:53;16.45;;;8.45;;
55330;SDS011;58851;42.984;20.336;2022-08-19T01:31:22;14.15;;;8.02;;
55330;SDS011;58851;42.984;20.336;2022-08-19T01:33:51;16.30;;;8.18;;
55330;SDS011;58851;42.984;20.336;2022-08-19T01:36:28;15.52;;;8.85;;
55330;SDS011;58851;42.984;20.336;2022-08-19T01:38:55;15.70;;;9.13;;
55330;SDS011;58851;42.984;20.336;2022-08-19T01:41:23;21.02;;;9.68;;
55330;SDS011;58851;42.984;20.336;2022-08-19T01:43:49;16.60;;;9.02;;
55330;SDS011;58851;42.984;20.336;2022-08-19T01:46:16;15.25;;;8.70;;
55330;SDS011;58851;42.984;20.336;2022-08-19T01:48:43;15.43;;;8.05;;
55330;SDS011;58851;42.984;20.336;2022-08-19T01:51:10;12.77;;;8.07;;
55330;SDS011;58851;42.984;20.336;2022-08-19T01:53:37;14.13;;;8.82;;
55330;SDS011;58851;42.984;20.336;2022-08-19T01:56:04;15.65;;;8.77;;
55330;SDS011;58851;42.984;20.336;2022-08-19T01:58:32;16.48;;;8.18;;
55330;SDS011;58851;42.984;20.336;2022-08-19T02:01:11;11.85;;;8.02;;
55330;SDS011;58851;42.984;20.336;2022-08-19T02:03:38;15.32;;;8.27;;
55330;SDS011;58851;42.984;20.336;2022-08-19T02:06:04;15.68;;;8.15;;
55330;SDS011;58851;42.984;20.336;2022-08-19T02:08:31;16.02;;;8.02;;
55330;SDS011;58851;42.984;20.336;2022-08-19T02:10:59;23.45;;;8.48;;
55330;SDS011;58851;42.984;20.336;2022-08-19T02:13:25;23.10;;;9.23;;
55330;SDS011;58851;42.984;20.336;2022-08-19T02:15:52;16.75;;;9.23;;
55330;SDS011;58851;42.984;20.336;2022-08-19T02:18:18;19.88;;;9.35;;
55330;SDS011;58851;42.984;20.336;2022-08-19T02:20:44;19.67;;;9.15;;
55330;SDS011;58851;42.984;20.336;2022-08-19T02:23:12;11.15;;;7.50;;
55330;SDS011;58851;42.984;20.336;2022-08-19T02:25:38;12.57;;;8.35;;
55330;SDS011;58851;42.984;20.336;2022-08-19T02:28:05;23.27;;;9.18;;
55330;SDS011;58851;42.984;20.336;2022-08-19T02:30:31;15.90;;;8.90;;
55330;SDS011;58851;42.984;20.336;2022-08-19T02:32:57;12.73;;;7.68;;
55330;SDS011;58851;42.984;20.336;2022-08-19T02:35:23;18.77;;;8.45;;
55330;SDS011;58851;42.984;20.336;2022-08-19T02:37:49;19.65;;;9.32;;
55330;SDS011;58851;42.984;20.336;2022-08-19T02:40:33;18.13;;;8.90;;
55330;SDS011;58851;42.984;20.336;2022-08-19T02:43:00;29.90;;;8.98;;
55330;SDS011;58851;42.984;20.336;2022-08-19T02:45:32;15.23;;;9.48;;
55330;SDS011;58851;42.984;20.336;2022-08-19T02:48:04;21.02;;;9.88;;
55330;SDS011;58851;42.984;20.336;2022-08-19T02:50:30;16.77;;;10.65;;
55330;SDS011;58851;42.984;20.336;2022-08-19T02:52:56;23.27;;;10.93;;
55330;SDS011;58851;42.984;20.336;2022-08-19T02:55:22;13.23;;;9.45;;
55330;SDS011;58851;42.984;20.336;2022-08-19T02:57:48;13.35;;;7.75;;
55330;SDS011;58851;42.984;20.336;2022-08-19T03:00:14;13.70;;;8.45;;
55330;SDS011;58851;42.984;20.336;2022-08-19T03:02:41;15.60;;;8.82;;
55330;SDS011;58851;42.984;20.336;2022-08-19T03:05:07;20.85;;;9.10;;
55330;SDS011;58851;42.984;20.336;2022-08-19T03:07:34;16.75;;;8.88;;
55330;SDS011;58851;42.984;20.336;2022-08-19T03:10:01;12.93;;;8.45;;
55330;SDS011;58851;42.984;20.336;2022-08-19T03:12:27;10.23;;;7.47;;
55330;SDS011;58851;42.984;20.336;2022-08-19T03:14:53;16.10;;;8.05;;
55330;SDS011;58851;42.984;20.336;2022-08-19T03:17:19;14.63;;;8.82;;
55330;SDS011;58851;42.984;20.336;2022-08-19T03:19:45;16.73;;;9.85;;
55330;SDS011;58851;42.984;20.336;2022-08-19T03:22:11;18.42;;;9.07;;
55330;SDS011;58851;42.984;20.336;2022-08-19T03:24:37;17.05;;;8.65;;
55330;SDS011;58851;42.984;20.336;2022-08-19T03:27:04;12.27;;;8.60;;
55330;SDS011;58851;42.984;20.336;2022-08-19T03:29:30;11.93;;;8.07;;
55330;SDS011;58851;42.984;20.336;2022-08-19T03:32:00;14.32;;;9.10;;
55330;SDS011;58851;42.984;20.336;2022-08-19T03:34:29;17.05;;;8.95;;
55330;SDS011;58851;42.984;20.336;2022-08-19T03:36:57;15.48;;;8.93;;
55330;SDS011;58851;42.984;20.336;2022-08-19T03:39:26;16.63;;;7.95;;
55330;SDS011;58851;42.984;20.336;2022-08-19T03:41:52;11.57;;;8.13;;
55330;SDS011;58851;42.984;20.336;2022-08-19T03:44:22;15.32;;;9.10;;
55330;SDS011;58851;42.984;20.336;2022-08-19T03:46:49;23.27;;;10.55;;
55330;SDS011;58851;42.984;20.336;2022-08-19T03:49:19;38.70;;;20.60;;
55330;SDS011;58851;42.984;20.336;2022-08-19T03:51:47;48.92;;;21.77;;
55330;SDS011;58851;42.984;20.336;2022-08-19T03:54:15;35.47;;;17.75;;
55330;SDS011;58851;42.984;20.336;2022-08-19T03:56:44;30.80;;;16.60;;
55330;SDS011;58851;42.984;20.336;2022-08-19T03:59:13;37.25;;;16.70;;
55330;SDS011;58851;42.984;20.336;2022-08-19T04:01:41;42.00;;;14.32;;
55330;SDS011;58851;42.984;20.336;2022-08-19T04:04:07;32.35;;;13.90;;
55330;SDS011;58851;42.984;20.336;2022-08-19T04:06:34;27.50;;;13.35;;
55330;SDS011;58851;42.984;20.336;2022-08-19T04:09:02;28.73;;;12.05;;
55330;SDS011;58851;42.984;20.336;2022-08-19T04:11:31;23.08;;;10.55;;
55330;SDS011;58851;42.984;20.336;2022-08-19T04:14:06;22.30;;;11.40;;
55330;SDS011;58851;42.984;20.336;2022-08-19T04:16:32;24.27;;;12.35;;
55330;SDS011;58851;42.984;20.336;2022-08-19T04:19:02;25.13;;;11.30;;
55330;SDS011;58851;42.984;20.336;2022-08-19T04:21:29;20.98;;;10.60;;
55330;SDS011;58851;42.984;20.336;2022-08-19T04:23:55;20.27;;;9.75;;
55330;SDS011;58851;42.984;20.336;2022-08-19T04:26:24;17.75;;;10.77;;
55330;SDS011;58851;42.984;20.336;2022-08-19T04:28:52;22.52;;;11.40;;
55330;SDS011;58851;42.984;20.336;2022-08-19T04:31:23;18.77;;;10.00;;
55330;SDS011;58851;42.984;20.336;2022-08-19T04:33:53;19.13;;;9.40;;
55330;SDS011;58851;42.984;20.336;2022-08-19T04:36:27;21.08;;;11.45;;
55330;SDS011;58851;42.984;20.336;2022-08-19T04:38:55;21.35;;;11.57;;
55330;SDS011;58851;42.984;20.336;2022-08-19T04:41:23;19.75;;;11.07;;
55330;SDS011;58851;42.984;20.336;2022-08-19T04:44:08;20.42;;;10.75;;
55330;SDS011;58851;42.984;20.336;2022-08-19T04:46:35;16.58;;;9.32;;
55330;SDS011;58851;42.984;20.336;2022-08-19T04:49:02;15.65;;;9.43;;
55330;SDS011;58851;42.984;20.336;2022-08-19T04:51:30;20.80;;;9.50;;
55330;SDS011;58851;42.984;20.336;2022-08-19T04:53:57;16.35;;;8.65;;
55330;SDS011;58851;42.984;20.336;2022-08-19T04:56:25;13.70;;;8.20;;
55330;SDS011;58851;42.984;20.336;2022-08-19T04:58:52;16.88;;;8.40;;
55330;SDS011;58851;42.984;20.336;2022-08-19T05:01:20;25.58;;;8.48;;
55330;SDS011;58851;42.984;20.336;2022-08-19T05:03:54;19.80;;;9.73;;
55330;SDS011;58851;42.984;20.336;2022-08-19T05:06:22;15.75;;;9.27;;
55330;SDS011;58851;42.984;20.336;2022-08-19T05:08:48;19.98;;;9.63;;
55330;SDS011;58851;42.984;20.336;2022-08-19T05:13:49;16.83;;;9.40;;
55330;SDS011;58851;42.984;20.336;2022-08-19T05:16:16;14.88;;;8.75;;
55330;SDS011;58851;42.984;20.336;2022-08-19T05:18:44;24.13;;;8.82;;
55330;SDS011;58851;42.984;20.336;2022-08-19T05:21:29;11.63;;;8.32;;
55330;SDS011;58851;42.984;20.336;2022-08-19T05:24:14;19.25;;;9.57;;
55330;SDS011;58851;42.984;20.336;2022-08-19T05:26:42;18.20;;;9.18;;
55330;SDS011;58851;42.984;20.336;2022-08-19T05:29:12;18.77;;;9.30;;
55330;SDS011;58851;42.984;20.336;2022-08-19T05:31:41;16.55;;;9.55;;
55330;SDS011;58851;42.984;20.336;2022-08-19T05:34:07;15.13;;;9.90;;
55330;SDS011;58851;42.984;20.336;2022-08-19T05:36:41;22.10;;;10.38;;
55330;SDS011;58851;42.984;20.336;2022-08-19T05:39:10;17.23;;;9.07;;
55330;SDS011;58851;42.984;20.336;2022-08-19T05:41:41;15.02;;;9.07;;
55330;SDS011;58851;42.984;20.336;2022-08-19T05:44:08;14.38;;;8.52;;
55330;SDS011;58851;42.984;20.336;2022-08-19T05:46:35;15.52;;;9.55;;
55330;SDS011;58851;42.984;20.336;2022-08-19T05:49:03;15.02;;;9.73;;
55330;SDS011;58851;42.984;20.336;2022-08-19T05:51:30;14.07;;;9.00;;
55330;SDS011;58851;42.984;20.336;2022-08-19T05:53:57;15.48;;;9.23;;
55330;SDS011;58851;42.984;20.336;2022-08-19T05:56:23;12.15;;;8.15;;
55330;SDS011;58851;42.984;20.336;2022-08-19T05:58:49;18.00;;;8.77;;
55330;SDS011;58851;42.984;20.336;2022-08-19T06:01:16;14.10;;;8.90;;
55330;SDS011;58851;42.984;20.336;2022-08-19T06:03:44;19.15;;;9.82;;
55330;SDS011;58851;42.984;20.336;2022-08-19T06:06:10;15.77;;;9.07;;
55330;SDS011;58851;42.984;20.336;2022-08-19T06:08:38;17.67;;;8.65;;
55330;SDS011;58851;42.984;20.336;2022-08-19T06:11:12;16.30;;;9.25;;
55330;SDS011;58851;42.984;20.336;2022-08-19T06:13:48;17.52;;;9.05;;
55330;SDS011;58851;42.984;20.336;2022-08-19T06:16:18;16.05;;;7.45;;
55330;SDS011;58851;42.984;20.336;2022-08-19T06:18:54;15.45;;;9.23;;
55330;SDS011;58851;42.984;20.336;2022-08-19T06:21:23;15.90;;;9.00;;
55330;SDS011;58851;42.984;20.336;2022-08-19T06:23:50;21.25;;;9.20;;
55330;SDS011;58851;42.984;20.336;2022-08-19T06:26:17;13.93;;;9.10;;
55330;SDS011;58851;42.984;20.336;2022-08-19T06:28:45;19.17;;;8.77;;
55330;SDS011;58851;42.984;20.336;2022-08-19T06:31:15;13.82;;;8.43;;
55330;SDS011;58851;42.984;20.336;2022-08-19T06:33:43;14.85;;;8.15;;
55330;SDS011;58851;42.984;20.336;2022-08-19T06:36:17;15.15;;;8.15;;
55330;SDS011;58851;42.984;20.336;2022-08-19T06:38:45;17.90;;;8.77;;
55330;SDS011;58851;42.984;20.336;2022-08-19T06:41:11;19.30;;;9.10;;
55330;SDS011;58851;42.984;20.336;2022-08-19T06:43:37;19.50;;;8.45;;
55330;SDS011;58851;42.984;20.336;2022-08-19T06:46:03;16.63;;;8.38;;
55330;SDS011;58851;42.984;20.336;2022-08-19T06:48:29;20.27;;;8.52;;
55330;SDS011;58851;42.984;20.336;2022-08-19T06:50:56;17.23;;;8.70;;
55330;SDS011;58851;42.984;20.336;2022-08-19T06:53:22;13.15;;;8.52;;
55330;SDS011;58851;42.984;20.336;2022-08-19T06:55:48;22.35;;;10.25;;
55330;SDS011;58851;42.984;20.336;2022-08-19T06:58:20;18.23;;;8.73;;
55330;SDS011;58851;42.984;20.336;2022-08-19T07:00:46;20.30;;;9.23;;
55330;SDS011;58851;42.984;20.336;2022-08-19T07:03:12;19.63;;;10.07;;
55330;SDS011;58851;42.984;20.336;2022-08-19T07:05:40;19.65;;;9.88;;
55330;SDS011;58851;42.984;20.336;2022-08-19T07:08:06;12.77;;;8.27;;
55330;SDS011;58851;42.984;20.336;2022-08-19T07:10:32;21.17;;;8.82;;
55330;SDS011;58851;42.984;20.336;2022-08-19T07:13:00;17.15;;;8.60;;
55330;SDS011;58851;42.984;20.336;2022-08-19T07:15:25;21.73;;;9.02;;
55330;SDS011;58851;42.984;20.336;2022-08-19T07:17:52;21.90;;;8.98;;
55330;SDS011;58851;42.984;20.336;2022-08-19T07:20:17;19.48;;;9.90;;
55330;SDS011;58851;42.984;20.336;2022-08-19T07:22:44;16.42;;;9.02;;
55330;SDS011;58851;42.984;20.336;2022-08-19T07:25:10;20.77;;;9.13;;
55330;SDS011;58851;42.984;20.336;2022-08-19T07:27:38;27.50;;;8.63;;
55330;SDS011;58851;42.984;20.336;2022-08-19T07:30:04;19.60;;;9.68;;
55330;SDS011;58851;42.984;20.336;2022-08-19T07:32:31;17.77;;;9.40;;
55330;SDS011;58851;42.984;20.336;2022-08-19T07:34:57;19.38;;;10.27;;
55330;SDS011;58851;42.984;20.336;2022-08-19T07:37:25;26.60;;;13.75;;
55330;SDS011;58851;42.984;20.336;2022-08-19T07:39:53;32.60;;;16.33;;
55330;SDS011;58851;42.984;20.336;2022-08-19T07:42:19;29.52;;;15.02;;
55330;SDS011;58851;42.984;20.336;2022-08-19T07:44:46;20.80;;;12.20;;
55330;SDS011;58851;42.984;20.336;2022-08-19T07:47:12;23.90;;;12.48;;
55330;SDS011;58851;42.984;20.336;2022-08-19T07:49:40;24.92;;;12.95;;
55330;SDS011;58851;42.984;20.336;2022-08-19T07:52:08;17.67;;;11.43;;
55330;SDS011;58851;42.984;20.336;2022-08-19T07:54:36;24.63;;;10.82;;
55330;SDS011;58851;42.984;20.336;2022-08-19T07:57:03;20.02;;;12.02;;
55330;SDS011;58851;42.984;20.336;2022-08-19T07:59:30;28.45;;;11.50;;
55330;SDS011;58851;42.984;20.336;2022-08-19T08:01:57;19.52;;;10.45;;
55330;SDS011;58851;42.984;20.336;2022-08-19T08:04:25;22.85;;;9.07;;
55330;SDS011;58851;42.984;20.336;2022-08-19T08:07:10;21.17;;;8.68;;
55330;SDS011;58851;42.984;20.336;2022-08-19T08:09:54;17.88;;;8.88;;
55330;SDS011;58851;42.984;20.336;2022-08-19T08:12:25;23.40;;;8.57;;
55330;SDS011;58851;42.984;20.336;2022-08-19T08:14:54;19.58;;;10.18;;
55330;SDS011;58851;42.984;20.336;2022-08-19T08:17:26;22.45;;;8.65;;
55330;SDS011;58851;42.984;20.336;2022-08-19T08:19:53;19.77;;;8.63;;
55330;SDS011;58851;42.984;20.336;2022-08-19T08:22:20;19.40;;;10.02;;
55330;SDS011;58851;42.984;20.336;2022-08-19T08:27:41;20.33;;;9.52;;
55330;SDS011;58851;42.984;20.336;2022-08-19T08:30:19;19.65;;;8.63;;
55330;SDS011;58851;42.984;20.336;2022-08-19T08:32:47;19.73;;;8.68;;
55330;SDS011;58851;42.984;20.336;2022-08-19T08:35:14;24.50;;;16.80;;
55330;SDS011;58851;42.984;20.336;2022-08-19T08:37:42;23.85;;;15.57;;
55330;SDS011;58851;42.984;20.336;2022-08-19T08:43:06;17.83;;;9.80;;
55330;SDS011;58851;42.984;20.336;2022-08-19T08:45:56;21.45;;;8.77;;
55330;SDS011;58851;42.984;20.336;2022-08-19T08:48:41;20.27;;;10.23;;
55330;SDS011;58851;42.984;20.336;2022-08-19T08:51:16;24.15;;;8.00;;
55330;SDS011;58851;42.984;20.336;2022-08-19T08:54:05;21.75;;;8.30;;
55330;SDS011;58851;42.984;20.336;2022-08-19T08:56:32;20.30;;;7.75;;
55330;SDS011;58851;42.984;20.336;2022-08-19T09:01:33;18.42;;;7.80;;
55330;SDS011;58851;42.984;20.336;2022-08-19T09:04:02;30.63;;;8.50;;
55330;SDS011;58851;42.984;20.336;2022-08-19T09:06:38;21.25;;;8.27;;
55330;SDS011;58851;42.984;20.336;2022-08-19T09:09:30;22.30;;;8.25;;
55330;SDS011;58851;42.984;20.336;2022-08-19T09:12:06;25.27;;;8.65;;
55330;SDS011;58851;42.984;20.336;2022-08-19T09:17:15;17.63;;;7.03;;
55330;SDS011;58851;42.984;20.336;2022-08-19T09:19:49;27.35;;;8.57;;
55330;SDS011;58851;42.984;20.336;2022-08-19T09:22:23;15.93;;;7.57;;
55330;SDS011;58851;42.984;20.336;2022-08-19T09:24:52;16.60;;;7.07;;
55330;SDS011;58851;42.984;20.336;2022-08-19T09:27:19;14.05;;;6.53;;
55330;SDS011;58851;42.984;20.336;2022-08-19T09:29:46;17.42;;;7.20;;
55330;SDS011;58851;42.984;20.336;2022-08-19T09:32:14;16.23;;;6.70;;
55330;SDS011;58851;42.984;20.336;2022-08-19T09:34:40;27.20;;;7.45;;
55330;SDS011;58851;42.984;20.336;2022-08-19T09:37:06;18.95;;;7.00;;
55330;SDS011;58851;42.984;20.336;2022-08-19T09:39:32;21.55;;;8.02;;
55330;SDS011;58851;42.984;20.336;2022-08-19T09:41:58;22.08;;;7.38;;
55330;SDS011;58851;42.984;20.336;2022-08-19T09:44:24;16.60;;;7.13;;
55330;SDS011;58851;42.984;20.336;2022-08-19T09:46:50;24.73;;;6.28;;
55330;SDS011;58851;42.984;20.336;2022-08-19T09:49:16;27.88;;;7.72;;
55330;SDS011;58851;42.984;20.336;2022-08-19T09:51:44;14.02;;;7.00;;
55330;SDS011;58851;42.984;20.336;2022-08-19T09:54:12;21.40;;;6.65;;
55330;SDS011;58851;42.984;20.336;2022-08-19T09:56:39;22.42;;;6.38;;
55330;SDS011;58851;42.984;20.336;2022-08-19T09:59:05;27.73;;;7.53;;
55330;SDS011;58851;42.984;20.336;2022-08-19T10:01:31;23.33;;;7.82;;
55330;SDS011;58851;42.984;20.336;2022-08-19T10:03:59;27.52;;;6.90;;
55330;SDS011;58851;42.984;20.336;2022-08-19T10:06:27;19.40;;;6.47;;
55330;SDS011;58851;42.984;20.336;2022-08-19T10:08:58;24.38;;;7.53;;
55330;SDS011;58851;42.984;20.336;2022-08-19T10:11:25;25.52;;;7.18;;
55330;SDS011;58851;42.984;20.336;2022-08-19T10:13:51;27.27;;;6.93;;
55330;SDS011;58851;42.984;20.336;2022-08-19T10:16:19;19.13;;;6.55;;
55330;SDS011;58851;42.984;20.336;2022-08-19T10:18:47;24.58;;;7.45;;
55330;SDS011;58851;42.984;20.336;2022-08-19T10:21:17;23.85;;;7.20;;
55330;SDS011;58851;42.984;20.336;2022-08-19T10:23:48;19.48;;;6.38;;
55330;SDS011;58851;42.984;20.336;2022-08-19T10:26:19;27.23;;;6.75;;
55330;SDS011;58851;42.984;20.336;2022-08-19T10:28:47;27.27;;;7.28;;
55330;SDS011;58851;42.984;20.336;2022-08-19T10:31:18;22.13;;;6.22;;
55330;SDS011;58851;42.984;20.336;2022-08-19T10:33:46;20.85;;;6.35;;
55330;SDS011;58851;42.984;20.336;2022-08-19T10:36:19;29.10;;;7.15;;
55330;SDS011;58851;42.984;20.336;2022-08-19T10:38:50;26.00;;;6.50;;
55330;SDS011;58851;42.984;20.336;2022-08-19T10:41:17;22.92;;;7.07;;
55330;SDS011;58851;42.984;20.336;2022-08-19T10:43:50;19.80;;;7.03;;
55330;SDS011;58851;42.984;20.336;2022-08-19T10:46:19;22.48;;;7.53;;
55330;SDS011;58851;42.984;20.336;2022-08-19T10:48:47;36.85;;;7.68;;
55330;SDS011;58851;42.984;20.336;2022-08-19T10:51:13;24.95;;;6.28;;
55330;SDS011;58851;42.984;20.336;2022-08-19T10:53:58;18.00;;;5.25;;
55330;SDS011;58851;42.984;20.336;2022-08-19T10:56:25;31.77;;;6.65;;
55330;SDS011;58851;42.984;20.336;2022-08-19T10:59:11;25.83;;;6.22;;
55330;SDS011;58851;42.984;20.336;2022-08-19T11:01:39;23.25;;;5.90;;
55330;SDS011;58851;42.984;20.336;2022-08-19T11:04:06;23.65;;;7.18;;
55330;SDS011;58851;42.984;20.336;2022-08-19T11:06:38;27.95;;;6.60;;
55330;SDS011;58851;42.984;20.336;2022-08-19T11:09:06;21.40;;;5.90;;
55330;SDS011;58851;42.984;20.336;2022-08-19T11:11:33;20.92;;;6.63;;
55330;SDS011;58851;42.984;20.336;2022-08-19T11:14:08;26.23;;;7.88;;
55330;SDS011;58851;42.984;20.336;2022-08-19T11:19:06;24.05;;;6.10;;
55330;SDS011;58851;42.984;20.336;2022-08-19T11:21:35;25.17;;;6.50;;
55330;SDS011;58851;42.984;20.336;2022-08-19T11:24:04;21.77;;;5.82;;
55330;SDS011;58851;42.984;20.336;2022-08-19T11:26:41;27.55;;;6.53;;
55330;SDS011;58851;42.984;20.336;2022-08-19T11:29:09;20.55;;;6.10;;
55330;SDS011;58851;42.984;20.336;2022-08-19T11:31:38;20.77;;;7.80;;
55330;SDS011;58851;42.984;20.336;2022-08-19T11:34:07;21.23;;;6.00;;
55330;SDS011;58851;42.984;20.336;2022-08-19T11:36:36;21.40;;;5.85;;
55330;SDS011;58851;42.984;20.336;2022-08-19T11:39:04;32.28;;;5.75;;
55330;SDS011;58851;42.984;20.336;2022-08-19T11:41:32;23.20;;;5.95;;
55330;SDS011;58851;42.984;20.336;2022-08-19T11:43:57;22.85;;;6.57;;
55330;SDS011;58851;42.984;20.336;2022-08-19T11:46:24;31.48;;;6.72;;
55330;SDS011;58851;42.984;20.336;2022-08-19T11:48:52;19.15;;;6.35;;
55330;SDS011;58851;42.984;20.336;2022-08-19T11:51:20;24.85;;;7.25;;
55330;SDS011;58851;42.984;20.336;2022-08-19T11:53:49;21.08;;;6.35;;
55330;SDS011;58851;42.984;20.336;2022-08-19T11:56:16;17.17;;;5.47;;
55330;SDS011;58851;42.984;20.336;2022-08-19T11:58:43;32.63;;;6.10;;
55330;SDS011;58851;42.984;20.336;2022-08-19T12:01:13;22.00;;;6.28;;
55330;SDS011;58851;42.984;20.336;2022-08-19T12:03:41;30.90;;;6.85;;
55330;SDS011;58851;42.984;20.336;2022-08-19T12:06:09;29.52;;;7.75;;
55330;SDS011;58851;42.984;20.336;2022-08-19T12:08:41;24.33;;;5.95;;
55330;SDS011;58851;42.984;20.336;2022-08-19T12:11:08;18.30;;;5.90;;
55330;SDS011;58851;42.984;20.336;2022-08-19T12:13:35;26.33;;;6.07;;
55330;SDS011;58851;42.984;20.336;2022-08-19T12:16:07;20.70;;;7.25;;
55330;SDS011;58851;42.984;20.336;2022-08-19T12:18:36;24.10;;;6.88;;
55330;SDS011;58851;42.984;20.336;2022-08-19T12:21:03;28.40;;;5.88;;
55330;SDS011;58851;42.984;20.336;2022-08-19T12:23:29;35.75;;;6.65;;
55330;SDS011;58851;42.984;20.336;2022-08-19T12:25:55;17.27;;;5.90;;
55330;SDS011;58851;42.984;20.336;2022-08-19T12:28:22;21.85;;;6.53;;
55330;SDS011;58851;42.984;20.336;2022-08-19T12:30:49;27.67;;;7.05;;
55330;SDS011;58851;42.984;20.336;2022-08-19T12:33:16;20.35;;;7.25;;
55330;SDS011;58851;42.984;20.336;2022-08-19T12:35:44;25.45;;;5.82;;
55330;SDS011;58851;42.984;20.336;2022-08-19T12:38:12;21.90;;;6.35;;
55330;SDS011;58851;42.984;20.336;2022-08-19T12:40:39;27.55;;;6.35;;
55330;SDS011;58851;42.984;20.336;2022-08-19T12:43:09;33.28;;;6.57;;
55330;SDS011;58851;42.984;20.336;2022-08-19T12:45:36;20.08;;;5.95;;
55330;SDS011;58851;42.984;20.336;2022-08-19T12:48:03;18.88;;;5.32;;
55330;SDS011;58851;42.984;20.336;2022-08-19T12:50:29;25.30;;;7.60;;
55330;SDS011;58851;42.984;20.336;2022-08-19T12:52:56;19.70;;;5.78;;
55330;SDS011;58851;42.984;20.336;2022-08-19T12:55:22;20.40;;;6.15;;
55330;SDS011;58851;42.984;20.336;2022-08-19T12:57:47;16.38;;;5.07;;
55330;SDS011;58851;42.984;20.336;2022-08-19T13:00:18;35.03;;;6.90;;
55330;SDS011;58851;42.984;20.336;2022-08-19T13:02:46;22.52;;;6.20;;
55330;SDS011;58851;42.984;20.336;2022-08-19T13:05:16;18.42;;;5.80;;
55330;SDS011;58851;42.984;20.336;2022-08-19T13:07:48;30.73;;;8.05;;
55330;SDS011;58851;42.984;20.336;2022-08-19T13:10:17;22.02;;;6.25;;
55330;SDS011;58851;42.984;20.336;2022-08-19T13:12:45;27.13;;;6.25;;
55330;SDS011;58851;42.984;20.336;2022-08-19T13:15:13;21.38;;;6.20;;
55330;SDS011;58851;42.984;20.336;2022-08-19T13:17:40;22.13;;;5.90;;
55330;SDS011;58851;42.984;20.336;2022-08-19T13:20:09;35.28;;;6.68;;
55330;SDS011;58851;42.984;20.336;2022-08-19T13:22:36;22.35;;;7.05;;
55330;SDS011;58851;42.984;20.336;2022-08-19T13:25:03;22.13;;;6.43;;
55330;SDS011;58851;42.984;20.336;2022-08-19T13:27:30;24.02;;;6.15;;
55330;SDS011;58851;42.984;20.336;2022-08-19T13:29:56;41.03;;;18.77;;
55330;SDS011;58851;42.984;20.336;2022-08-19T13:32:40;29.23;;;10.65;;
55330;SDS011;58851;42.984;20.336;2022-08-19T13:35:25;25.13;;;6.93;;
55330;SDS011;58851;42.984;20.336;2022-08-19T13:37:50;33.63;;;12.20;;
55330;SDS011;58851;42.984;20.336;2022-08-19T13:40:17;26.88;;;13.48;;
55330;SDS011;58851;42.984;20.336;2022-08-19T13:42:48;27.98;;;9.63;;
55330;SDS011;58851;42.984;20.336;2022-08-19T13:45:18;28.42;;;7.82;;
55330;SDS011;58851;42.984;20.336;2022-08-19T13:47:45;28.83;;;7.35;;
55330;SDS011;58851;42.984;20.336;2022-08-19T13:50:13;32.88;;;15.07;;
55330;SDS011;58851;42.984;20.336;2022-08-19T13:52:42;19.92;;;7.75;;
55330;SDS011;58851;42.984;20.336;2022-08-19T13:55:08;27.10;;;7.80;;
55330;SDS011;58851;42.984;20.336;2022-08-19T13:57:36;26.48;;;7.30;;
55330;SDS011;58851;42.984;20.336;2022-08-19T14:00:06;26.63;;;7.97;;
55330;SDS011;58851;42.984;20.336;2022-08-19T14:02:37;30.67;;;10.02;;
55330;SDS011;58851;42.984;20.336;2022-08-19T14:05:09;31.73;;;8.52;;
55330;SDS011;58851;42.984;20.336;2022-08-19T14:07:37;35.23;;;7.97;;
55330;SDS011;58851;42.984;20.336;2022-08-19T14:10:05;27.67;;;7.72;;
55330;SDS011;58851;42.984;20.336;2022-08-19T14:12:32;40.38;;;9.30;;
55330;SDS011;58851;42.984;20.336;2022-08-19T14:14:58;26.95;;;9.45;;
55330;SDS011;58851;42.984;20.336;2022-08-19T14:17:24;33.90;;;8.45;;
55330;SDS011;58851;42.984;20.336;2022-08-19T14:19:57;31.80;;;10.15;;
55330;SDS011;58851;42.984;20.336;2022-08-19T14:22:26;33.10;;;9.40;;
55330;SDS011;58851;42.984;20.336;2022-08-19T14:24:51;25.52;;;9.00;;
55330;SDS011;58851;42.984;20.336;2022-08-19T14:27:17;36.85;;;10.73;;
55330;SDS011;58851;42.984;20.336;2022-08-19T14:29:43;38.47;;;9.95;;
55330;SDS011;58851;42.984;20.336;2022-08-19T14:32:10;28.25;;;10.32;;
55330;SDS011;58851;42.984;20.336;2022-08-19T14:34:37;30.10;;;8.65;;
55330;SDS011;58851;42.984;20.336;2022-08-19T14:37:03;26.63;;;9.27;;
55330;SDS011;58851;42.984;20.336;2022-08-19T14:39:29;29.80;;;8.68;;
55330;SDS011;58851;42.984;20.336;2022-08-19T14:41:54;36.00;;;9.32;;
55330;SDS011;58851;42.984;20.336;2022-08-19T14:44:21;23.08;;;8.40;;